Time;durP1;ratioP1;P1;durP2;ratioP2;P2;SDS_P1;SDS_P2;PMS_P1;PMS_P2;Temp;Humidity;BMP_temperature;BMP_pressure;BME280_temperature;BME280_humidity;BME280_pressure;Samples;Min_cycle;Max_cycle;Signal;HPM_P1;HPM_P2
2023/03/05 00:01:37;;;;;;;1.70;0.90;;;;;;;-2.62;64.53;98499.46;104333;1272;73380;-69
2023/03/05 00:04:07;;;;;;;2.30;1.00;;;;;;;-2.67;64.30;98502.80;104089;1276;60483;-69
2023/03/05 00:06:36;;;;;;;2.90;1.30;;;;;;;-2.72;63.71;98508.06;104445;1272;60564;-67
2023/03/05 00:09:04;;;;;;;2.50;1.30;;;;;;;-2.78;63.64;98509.32;104530;1274;73895;-67
2023/03/05 00:11:36;;;;;;;2.40;1.10;;;;;;;-2.83;63.20;98515.63;104785;1273;71279;-68
2023/03/05 00:14:05;;;;;;;3.40;1.10;;;;;;;-2.88;63.05;98516.68;104754;1272;72959;-67
2023/03/05 00:16:33;;;;;;;3.00;0.80;;;;;;;-2.94;62.19;98521.08;104653;1272;61111;-68
2023/03/05 00:19:04;;;;;;;4.10;1.30;;;;;;;-3.00;61.62;98522.52;104378;1272;61274;-66
2023/03/05 00:21:35;;;;;;;2.90;1.10;;;;;;;-3.04;62.02;98528.08;104551;1274;73428;-66
2023/03/05 00:24:10;;;;;;;3.30;0.90;;;;;;;-3.08;61.64;98529.58;104410;1271;70563;-67
2023/03/05 00:26:41;;;;;;;2.60;1.30;;;;;;;-3.12;62.02;98527.79;104459;1276;72132;-68
2023/03/05 00:29:10;;;;;;;2.30;0.90;;;;;;;-3.17;62.08;98524.63;104557;1272;60572;-70
2023/03/05 00:31:43;;;;;;;4.70;1.20;;;;;;;-3.21;62.17;98529.08;104005;1274;61096;-69
2023/03/05 00:34:12;;;;;;;2.20;0.90;;;;;;;-3.24;61.95;98532.97;104318;1276;72981;-68
2023/03/05 00:36:42;;;;;;;2.40;0.90;;;;;;;-3.27;62.20;98533.05;104457;1276;71419;-68
2023/03/05 00:39:11;;;;;;;4.20;0.90;;;;;;;-3.30;62.19;98534.62;104480;1271;73639;-69
2023/03/05 00:41:39;;;;;;;3.00;1.30;;;;;;;-3.33;62.21;98540.52;104466;1274;250350;-67
2023/03/05 00:45:52;;;;;;;1.30;0.80;;;;;;;-3.36;62.35;98534.00;102290;1294;602748;-68
2023/03/05 00:48:21;;;;;;;2.50;1.20;;;;;;;-3.37;62.72;98543.58;105025;1269;59465;-70
2023/03/05 00:50:48;;;;;;;2.60;1.00;;;;;;;-3.39;62.62;98549.58;104967;1271;59787;-68
2023/03/05 00:53:15;;;;;;;3.30;1.20;;;;;;;-3.40;62.68;98552.83;104637;1271;71161;-68
2023/03/05 00:55:41;;;;;;;2.40;0.80;;;;;;;-3.42;62.52;98553.67;105361;1257;71261;-68
2023/03/05 00:58:08;;;;;;;1.80;0.80;;;;;;;-3.45;62.70;98560.92;105223;1258;160823;-67
2023/03/05 01:00:35;;;;;;;2.80;0.80;;;;;;;-3.47;62.97;98561.97;105407;1261;59414;-70
2023/03/05 01:03:03;;;;;;;3.60;1.00;;;;;;;-3.49;62.91;98566.25;105526;1256;59365;-69
2023/03/05 01:05:30;;;;;;;3.90;1.30;;;;;;;-3.51;63.10;98568.27;105677;1259;72094;-69
2023/03/05 01:07:58;;;;;;;1.80;0.80;;;;;;;-3.53;63.24;98570.87;105629;1254;68519;-69
2023/03/05 01:10:31;;;;;;;2.50;1.00;;;;;;;-3.57;63.24;98572.13;105412;1256;73447;-69
2023/03/05 01:13:00;;;;;;;2.30;0.80;;;;;;;-3.59;63.34;98576.30;105429;1259;60377;-69
2023/03/05 01:15:27;;;;;;;1.10;0.50;;;;;;;-3.62;63.28;98575.80;105607;1254;60202;-69
2023/03/05 01:17:54;;;;;;;2.00;0.90;;;;;;;-3.65;63.42;98577.03;105421;1254;72013;-67
2023/03/05 01:20:21;;;;;;;1.70;0.70;;;;;;;-3.67;63.63;98579.44;105491;1254;70206;-68
2023/03/05 01:22:48;;;;;;;2.90;0.80;;;;;;;-3.68;63.51;98581.81;105637;1254;71669;-67
2023/03/05 01:25:15;;;;;;;4.00;0.80;;;;;;;-3.71;63.49;98580.23;105619;1254;61550;-68
2023/03/05 01:27:42;;;;;;;1.40;0.80;;;;;;;-3.72;63.31;98582.05;105649;1256;59595;-67
2023/03/05 01:30:12;;;;;;;3.20;0.60;;;;;;;-3.74;63.27;98584.44;105495;1259;72370;-70
2023/03/05 01:32:39;;;;;;;6.90;0.80;;;;;;;-3.76;63.34;98585.40;105668;1257;71468;-70
2023/03/05 01:35:07;;;;;;;2.40;0.60;;;;;;;-3.77;63.29;98586.02;105627;1256;72090;-70
2023/03/05 01:37:35;;;;;;;1.30;0.60;;;;;;;-3.79;63.29;98589.61;105734;1254;61576;-68
2023/03/05 01:40:02;;;;;;;2.20;0.70;;;;;;;-3.80;63.22;98589.70;105695;1254;61093;-69
2023/03/05 01:42:33;;;;;;;2.80;0.80;;;;;;;-3.82;63.47;98593.06;105703;1256;73579;-69
2023/03/05 01:45:13;;;;;;;1.50;0.70;;;;;;;-3.83;63.37;98590.92;105499;1254;71471;-68
2023/03/05 01:47:40;;;;;;;2.20;0.90;;;;;;;-3.85;63.67;98588.96;105699;1256;71996;-68
2023/03/05 01:50:18;;;;;;;2.50;0.80;;;;;;;-3.87;63.62;98592.90;105527;1254;61176;-68
2023/03/05 01:52:49;;;;;;;1.70;0.60;;;;;;;-3.88;63.78;98596.98;105734;1254;61113;-68
2023/03/05 01:55:21;;;;;;;2.80;0.90;;;;;;;-3.90;63.96;98597.99;105713;1254;72056;-69
2023/03/05 01:57:51;;;;;;;1.90;0.80;;;;;;;-3.92;64.04;98597.41;105659;1258;69308;-68
2023/03/05 02:00:20;;;;;;;3.30;0.80;;;;;;;-3.94;64.25;98600.52;105668;1257;71611;-69
2023/03/05 02:02:49;;;;;;;1.40;0.50;;;;;;;-3.96;64.33;98596.80;105476;1254;60399;-68
2023/03/05 02:05:25;;;;;;;2.60;0.70;;;;;;;-3.97;64.40;98601.88;105584;1254;61351;-70
2023/03/05 02:07:54;;;;;;;2.90;0.70;;;;;;;-3.98;64.41;98609.59;105531;1256;72639;-69
2023/03/05 02:10:29;;;;;;;1.70;1.00;;;;;;;-3.99;64.55;98612.95;105717;1256;69473;-70
2023/03/05 02:12:57;;;;;;;3.30;0.90;;;;;;;-4.01;64.69;98614.42;105373;1257;73932;-70
2023/03/05 02:15:24;;;;;;;1.80;0.50;;;;;;;-4.01;64.65;98618.98;105681;1254;61424;-69
2023/03/05 02:17:51;;;;;;;3.50;0.70;;;;;;;-4.02;64.78;98616.95;105533;1254;59601;-67
2023/03/05 02:20:28;;;;;;;1.80;0.80;;;;;;;-4.02;65.08;98620.23;105398;1256;73709;-69
2023/03/05 02:22:55;;;;;;;1.20;0.60;;;;;;;-4.01;65.34;98621.42;105490;1254;70222;-69
2023/03/05 02:25:25;;;;;;;1.20;0.70;;;;;;;-4.00;65.40;98627.91;105530;1256;73377;-69
2023/03/05 02:28:10;;;;;;;2.60;0.60;;;;;;;-4.00;65.34;98623.55;105503;1259;61101;-67
2023/03/05 02:30:40;;;;;;;2.30;0.70;;;;;;;-3.99;65.32;98629.38;105444;1254;61558;-66
2023/03/05 02:33:07;;;;;;;2.70;0.60;;;;;;;-3.98;65.21;98632.78;105533;1256;73724;-68
2023/03/05 02:35:34;;;;;;;1.50;0.60;;;;;;;-3.97;65.45;98635.30;105748;1254;70685;-69
2023/03/05 02:38:02;;;;;;;2.20;0.80;;;;;;;-3.96;65.53;98634.73;105582;1256;72220;-71
2023/03/05 02:40:29;;;;;;;2.70;0.90;;;;;;;-3.94;65.57;98639.96;105543;1253;60633;-69
2023/03/05 02:42:55;;;;;;;2.90;0.70;;;;;;;-3.91;65.77;98646.50;105572;1254;60575;-69
2023/03/05 02:45:23;;;;;;;0.90;0.60;;;;;;;-3.89;65.92;98646.67;105560;1259;73842;-68
2023/03/05 02:47:50;;;;;;;3.80;0.90;;;;;;;-3.85;65.90;98645.20;105673;1257;70647;-68
2023/03/05 02:50:16;;;;;;;6.00;0.90;;;;;;;-3.81;65.85;98644.41;105559;1259;73507;-71
2023/03/05 02:52:44;;;;;;;1.50;0.60;;;;;;;-3.77;65.90;98640.88;105404;1254;59745;-68
2023/03/05 02:55:14;;;;;;;3.30;0.80;;;;;;;-3.74;65.94;98643.45;105747;1255;61445;-68
2023/03/05 02:57:41;;;;;;;1.70;0.70;;;;;;;-3.73;65.86;98642.49;105584;1256;72951;-68
2023/03/05 03:00:09;;;;;;;1.00;0.60;;;;;;;-3.72;65.89;98638.61;105585;1254;71747;-67
2023/03/05 03:02:37;;;;;;;1.60;0.80;;;;;;;-3.71;65.84;98645.65;105484;1259;73044;-69
2023/03/05 03:05:06;;;;;;;2.60;0.60;;;;;;;-3.70;66.13;98638.36;105436;1254;59611;-69
2023/03/05 03:07:35;;;;;;;2.30;1.00;;;;;;;-3.70;66.09;98644.23;105516;1254;60652;-69
2023/03/05 03:10:04;;;;;;;2.80;0.60;;;;;;;-3.69;66.25;98643.48;105526;1256;72945;-68
2023/03/05 03:12:31;;;;;;;2.50;1.00;;;;;;;-3.68;66.30;98648.55;105549;1254;71579;-67
2023/03/05 03:14:59;;;;;;;4.30;0.90;;;;;;;-3.66;66.38;98648.06;105434;1254;73723;-67
2023/03/05 03:17:35;;;;;;;0.90;0.60;;;;;;;-3.49;66.40;98652.98;105405;1257;62319;-67
2023/03/05 03:20:07;;;;;;;0.90;0.60;;;;;;;-3.34;66.24;98660.63;105569;1253;59641;-67
2023/03/05 03:22:33;;;;;;;2.00;0.70;;;;;;;-3.32;66.09;98658.05;105567;1257;72943;-69
2023/03/05 03:25:00;;;;;;;1.30;0.80;;;;;;;-3.33;66.06;98657.78;105480;1256;70594;-69
2023/03/05 03:27:27;;;;;;;2.80;0.90;;;;;;;-3.34;66.05;98665.80;105699;1257;73876;-67
2023/03/05 03:29:53;;;;;;;3.20;0.80;;;;;;;-3.34;66.08;98665.27;105698;1253;60309;-67
2023/03/05 03:32:21;;;;;;;2.20;0.90;;;;;;;-3.34;65.96;98664.92;105689;1253;61300;-69
2023/03/05 03:34:47;;;;;;;2.60;0.90;;;;;;;-3.34;66.18;98667.89;105591;1256;74218;-69
2023/03/05 03:37:15;;;;;;;6.90;0.90;;;;;;;-3.35;66.05;98662.23;105587;1257;70241;-69
2023/03/05 03:39:41;;;;;;;1.90;0.60;;;;;;;-3.36;66.07;98661.45;105690;1259;72965;-70
2023/03/05 03:42:08;;;;;;;1.10;0.70;;;;;;;-3.37;66.33;98661.15;105634;1254;60400;-70
2023/03/05 03:44:35;;;;;;;5.50;1.60;;;;;;;-3.38;66.38;98663.10;105688;1254;60399;-69
2023/03/05 03:47:02;;;;;;;2.80;1.30;;;;;;;-3.39;66.50;98662.81;105446;1257;73224;-69
2023/03/05 03:49:30;;;;;;;2.80;0.90;;;;;;;-3.40;66.66;98662.39;105609;1258;70159;-70
2023/03/05 03:51:57;;;;;;;4.70;0.90;;;;;;;-3.43;66.62;98656.52;105578;1254;72818;-70
2023/03/05 03:54:24;;;;;;;2.80;0.70;;;;;;;-3.44;66.60;98662.33;105624;1254;59742;-68
2023/03/05 03:56:51;;;;;;;2.20;0.90;;;;;;;-3.43;66.74;98660.37;105651;1253;60579;-67
2023/03/05 03:59:18;;;;;;;1.20;0.70;;;;;;;-3.44;66.94;98661.44;105888;1256;74336;-69
2023/03/05 04:01:45;;;;;;;2.40;0.70;;;;;;;-3.43;66.82;98661.88;105516;1254;70008;-68
2023/03/05 04:04:12;;;;;;;2.40;0.80;;;;;;;-3.41;66.86;98659.48;105635;1257;73075;-70
2023/03/05 04:06:39;;;;;;;3.00;0.80;;;;;;;-3.27;66.80;98663.42;105595;1254;62617;-71
2023/03/05 04:09:12;;;;;;;;;;;;;;;-3.17;66.62;98665.46;105493;1254;60391;-70
2023/03/05 04:11:39;;;;;;;2.70;0.80;;;;;;;-3.19;66.69;98671.11;105574;1254;74051;-69
2023/03/05 04:14:06;;;;;;;2.40;0.70;;;;;;;-3.23;66.39;98672.50;105468;1258;71424;-67
2023/03/05 04:16:36;;;;;;;2.10;1.00;;;;;;;-3.26;66.71;98671.45;105284;1259;73327;-69
2023/03/05 04:19:02;;;;;;;2.20;1.00;;;;;;;-3.26;66.74;98675.48;105470;1254;61533;-71
2023/03/05 04:21:29;;;;;;;1.90;0.80;;;;;;;-3.27;66.63;98676.88;105699;1254;60516;-66
2023/03/05 04:23:56;;;;;;;3.30;1.10;;;;;;;-3.28;66.55;98687.38;105648;1256;74049;-66
2023/03/05 04:26:23;;;;;;;1.70;1.00;;;;;;;-3.30;66.72;98684.04;105638;1254;70308;-67
2023/03/05 04:28:49;;;;;;;4.30;1.10;;;;;;;-3.31;66.80;98682.39;105626;1257;72612;-68
2023/03/05 04:31:16;;;;;;;1.70;0.80;;;;;;;-3.32;66.63;98675.00;105624;1253;59659;-67
2023/03/05 04:33:46;;;;;;;2.80;0.90;;;;;;;-3.35;66.72;98678.48;105580;1254;59791;-70
2023/03/05 04:36:13;;;;;;;4.70;0.90;;;;;;;-3.36;66.95;98679.56;105602;1257;72068;-67
2023/03/05 04:38:45;;;;;;;2.00;0.90;;;;;;;-3.36;66.85;98682.70;105629;1254;71305;-70
2023/03/05 04:41:12;;;;;;;2.00;0.80;;;;;;;-3.35;66.65;98684.89;105634;1254;73049;-67
2023/03/05 04:43:38;;;;;;;2.30;0.90;;;;;;;-3.33;66.60;98681.84;105562;1257;61457;-67
2023/03/05 04:46:05;;;;;;;1.80;1.60;;;;;;;-3.32;66.66;98687.32;105536;1254;60247;-68
2023/03/05 04:48:32;;;;;;;2.80;1.20;;;;;;;-3.31;66.85;98689.69;105699;1257;72672;-70
2023/03/05 04:50:59;;;;;;;2.40;0.90;;;;;;;-3.31;66.76;98687.42;105678;1254;71061;-69
2023/03/05 04:53:26;;;;;;;6.20;1.30;;;;;;;-3.32;66.73;98689.39;105550;1259;73953;-68
2023/03/05 04:56:00;;;;;;;2.80;0.80;;;;;;;-3.33;66.70;98692.90;105610;1254;60449;-67
2023/03/05 04:58:27;;;;;;;5.00;0.90;;;;;;;-3.32;66.79;98695.65;105717;1254;60324;-67
2023/03/05 05:00:59;;;;;;;1.90;1.00;;;;;;;-3.30;66.85;98701.73;105620;1256;73311;-67
2023/03/05 05:03:26;;;;;;;2.90;1.00;;;;;;;-3.16;66.90;98703.48;105702;1256;69508;-68
2023/03/05 05:05:54;;;;;;;3.60;1.20;;;;;;;-3.04;66.64;98703.55;105605;1254;73435;-71
2023/03/05 05:08:22;;;;;;;2.50;0.80;;;;;;;-3.04;66.57;98710.11;105744;1255;60418;-70
2023/03/05 05:11:00;;;;;;;2.90;1.00;;;;;;;-3.03;66.47;98714.40;105603;1255;60399;-69
2023/03/05 05:13:29;;;;;;;3.90;0.80;;;;;;;-3.04;66.08;98712.89;105590;1257;74795;-68
2023/03/05 05:15:56;;;;;;;2.20;0.80;;;;;;;-3.06;65.98;98716.29;105763;1259;71442;-69
2023/03/05 05:18:24;;;;;;;3.60;1.10;;;;;;;-3.08;65.87;98719.91;105838;1257;71688;-68
2023/03/05 05:20:52;;;;;;;2.50;1.10;;;;;;;-3.09;65.90;98721.91;105827;1254;61375;-68
2023/03/05 05:23:18;;;;;;;2.90;1.30;;;;;;;-3.10;65.78;98720.94;105646;1257;61803;-67
2023/03/05 05:25:45;;;;;;;7.00;1.70;;;;;;;-3.12;65.87;98723.85;105753;1255;72970;-68
2023/03/05 05:28:13;;;;;;;3.80;1.10;;;;;;;-3.12;66.06;98725.94;105802;1259;71438;-70
2023/03/05 05:30:40;;;;;;;7.00;1.60;;;;;;;-3.12;66.22;98726.45;105746;1259;72906;-66
2023/03/05 05:33:07;;;;;;;1.90;0.90;;;;;;;-3.11;65.99;98727.77;105808;1254;61602;-68
2023/03/05 05:35:38;;;;;;;3.50;1.60;;;;;;;-3.10;65.92;98734.14;105834;1254;60453;-69
2023/03/05 05:38:04;;;;;;;5.40;1.50;;;;;;;-3.10;66.02;98731.50;105829;1254;74064;-69
2023/03/05 05:40:33;;;;;;;4.40;1.40;;;;;;;-3.10;66.02;98731.48;105778;1254;71416;-70
2023/03/05 05:42:59;;;;;;;3.40;1.30;;;;;;;-3.07;66.13;98733.55;105536;1257;72723;-65
2023/03/05 05:45:26;;;;;;;3.00;1.20;;;;;;;-3.07;65.88;98733.16;105592;1254;60417;-67
2023/03/05 05:47:53;;;;;;;2.90;1.10;;;;;;;-3.07;65.83;98723.98;105507;1254;60533;-67
2023/03/05 05:50:26;;;;;;;2.40;1.00;;;;;;;-3.04;66.06;98722.23;105519;1257;75037;-68
2023/03/05 05:52:53;;;;;;;1.90;1.00;;;;;;;-3.02;65.95;98726.23;105313;1254;71442;-70
2023/03/05 05:55:20;;;;;;;2.90;1.30;;;;;;;-2.98;65.82;98727.71;105542;1257;72542;-70
2023/03/05 05:58:06;;;;;;;2.20;0.90;;;;;;;-2.93;65.82;98727.04;105553;1254;62461;-68
2023/03/05 06:00:33;;;;;;;3.80;1.10;;;;;;;-2.87;65.93;98725.38;105388;1260;61523;-70
2023/03/05 06:02:59;;;;;;;4.40;1.30;;;;;;;-2.81;65.66;98731.52;105567;1257;72586;-69
2023/03/05 06:05:26;;;;;;;6.50;1.30;;;;;;;-2.76;65.53;98730.16;105563;1254;71508;-69
2023/03/05 06:07:53;;;;;;;1.90;0.90;;;;;;;-2.71;65.57;98730.15;105527;1254;72882;-71
2023/03/05 06:10:20;;;;;;;4.20;1.30;;;;;;;-2.68;65.11;98729.75;105557;1255;60405;-69
2023/03/05 06:12:47;;;;;;;4.70;1.40;;;;;;;-2.67;64.93;98729.38;106110;1254;60433;-70
2023/03/05 06:15:14;;;;;;;4.50;1.00;;;;;;;-2.68;64.66;98732.73;106405;1259;71803;-70
2023/03/05 06:17:41;;;;;;;4.40;1.20;;;;;;;-2.66;64.49;98733.26;106280;1254;69994;-73
2023/03/05 06:20:11;;;;;;;3.60;1.00;;;;;;;-2.63;64.37;98736.13;105568;1257;71738;-70
2023/03/05 06:22:38;;;;;;;2.10;1.00;;;;;;;-2.57;64.24;98738.13;105652;1254;60471;-72
2023/03/05 06:25:06;;;;;;;5.50;1.50;;;;;;;-2.49;64.56;98735.01;105808;1256;61298;-73
2023/03/05 06:27:34;;;;;;;4.80;1.30;;;;;;;-2.41;64.20;98736.33;106124;1256;74071;-73
2023/03/05 06:30:01;;;;;;;4.10;1.40;;;;;;;-2.34;64.41;98739.11;105781;1259;71194;-73
2023/03/05 06:32:28;;;;;;;3.30;1.40;;;;;;;-2.26;64.10;98742.52;105691;1255;72191;-73
2023/03/05 06:34:55;;;;;;;3.40;1.20;;;;;;;-2.19;63.56;98744.28;105824;1255;61519;-74
2023/03/05 06:37:21;;;;;;;3.10;1.40;;;;;;;-2.15;63.81;98743.80;105499;1257;61157;-73
2023/03/05 06:39:48;;;;;;;5.40;1.60;;;;;;;-2.10;63.41;98746.21;105846;1257;75077;-74
2023/03/05 06:42:18;;;;;;;4.80;1.60;;;;;;;-2.04;63.39;98748.75;105817;1255;70292;-73
2023/03/05 06:44:45;;;;;;;7.70;1.50;;;;;;;-2.00;62.93;98748.60;105625;1256;73740;-72
2023/03/05 06:47:14;;;;;;;4.30;1.40;;;;;;;-1.96;62.89;98746.93;105764;1254;61342;-72
2023/03/05 06:49:41;;;;;;;6.80;1.40;;;;;;;-1.93;62.59;98747.27;105759;1257;61295;-73
2023/03/05 06:52:11;;;;;;;6.30;1.60;;;;;;;-1.91;62.59;98757.56;105783;1256;73974;-74
2023/03/05 06:54:39;;;;;;;5.70;1.20;;;;;;;-1.89;62.68;98755.14;105649;1256;67915;-73
2023/03/05 06:57:06;;;;;;;2.70;1.20;;;;;;;-1.83;62.69;98756.08;105646;1259;72862;-73
2023/03/05 06:59:33;;;;;;;3.60;1.10;;;;;;;-1.80;62.09;98758.23;105499;1255;60451;-74
2023/03/05 07:01:59;;;;;;;3.80;1.20;;;;;;;-1.76;62.18;98763.40;105548;1254;60770;-73
2023/03/05 07:04:27;;;;;;;2.80;1.20;;;;;;;-1.70;62.23;98763.81;105447;1260;73226;-73
2023/03/05 07:06:54;;;;;;;2.00;1.10;;;;;;;-1.66;61.92;98766.27;106159;1254;71337;-72
2023/03/05 07:09:21;;;;;;;4.70;1.50;;;;;;;-1.65;61.81;98764.13;108227;1254;72390;-74
2023/03/05 07:11:49;;;;;;;3.40;1.20;;;;;;;-1.65;61.62;98768.47;107754;1259;60262;-74
2023/03/05 07:14:16;;;;;;;8.70;2.50;;;;;;;-1.62;61.65;98770.09;106321;1256;60533;-75
2023/03/05 07:16:44;;;;;;;2.50;1.30;;;;;;;-1.53;61.83;98769.27;106138;1259;74888;-73
2023/03/05 07:19:14;;;;;;;3.60;1.70;;;;;;;-1.41;61.80;98768.92;106051;1257;70966;-74
2023/03/05 07:21:41;;;;;;;2.30;1.00;;;;;;;-1.29;61.95;98770.29;105960;1257;72655;-74
2023/03/05 07:24:12;;;;;;;2.70;1.10;;;;;;;-1.15;62.00;98778.08;105877;1257;60813;-75
2023/03/05 07:26:41;;;;;;;4.00;1.00;;;;;;;-1.04;61.45;98777.01;105980;1253;61598;-75
2023/03/05 07:29:08;;;;;;;4.40;1.90;;;;;;;-0.97;61.05;98788.14;106193;1254;74837;-76
2023/03/05 07:31:38;;;;;;;4.60;1.40;;;;;;;-0.94;60.27;98788.77;105748;1254;71280;-74
2023/03/05 07:34:05;;;;;;;2.60;1.30;;;;;;;-0.94;60.35;98787.08;105691;1254;72410;-74
2023/03/05 07:36:33;;;;;;;3.30;1.10;;;;;;;-0.95;60.47;98791.64;105786;1254;61039;-74
2023/03/05 07:39:04;;;;;;;3.10;1.70;;;;;;;-0.93;60.69;98789.64;106084;1254;61032;-73
2023/03/05 07:41:34;;;;;;;3.50;1.10;;;;;;;-0.88;60.92;98794.80;106486;1253;74337;-77
2023/03/05 07:44:02;;;;;;;2.50;1.10;;;;;;;-0.79;60.63;98797.88;106537;1254;71549;-73
2023/03/05 07:46:31;;;;;;;2.40;1.20;;;;;;;-0.70;60.37;98801.38;106166;1260;73509;-73
2023/03/05 07:48:59;;;;;;;4.00;1.70;;;;;;;-0.71;60.02;98798.15;106149;1254;60337;-72
2023/03/05 07:51:26;;;;;;;3.90;1.00;;;;;;;-0.68;59.43;98805.72;105856;1255;60507;-73
2023/03/05 07:53:56;;;;;;;5.10;1.60;;;;;;;-0.73;59.36;98810.81;105773;1260;74792;-76
2023/03/05 07:56:30;;;;;;;4.90;2.20;;;;;;;-0.80;59.33;98802.66;105800;1257;71462;-73
2023/03/05 07:58:58;;;;;;;3.90;1.30;;;;;;;-0.83;59.96;98804.42;106555;1259;72703;-75
2023/03/05 08:01:25;;;;;;;1.90;1.00;;;;;;;-0.83;60.03;98807.77;106504;1257;60544;-73
2023/03/05 08:03:52;;;;;;;2.90;1.00;;;;;;;-0.79;60.21;98799.95;106714;1254;60476;-72
2023/03/05 08:06:19;;;;;;;2.80;1.20;;;;;;;-0.74;60.09;98804.46;107201;1256;74780;-73
2023/03/05 08:08:47;;;;;;;4.30;1.00;;;;;;;-0.64;59.50;98806.61;106268;1257;71179;-72
2023/03/05 08:11:15;;;;;;;2.80;1.10;;;;;;;-0.62;59.16;98801.45;105756;1255;72887;-73
2023/03/05 08:13:44;;;;;;;2.40;1.10;;;;;;;-0.59;59.79;98803.42;105836;1257;60492;-73
2023/03/05 08:16:19;;;;;;;3.60;1.10;;;;;;;-0.47;59.82;98807.73;105886;1256;60523;-74
2023/03/05 08:18:54;;;;;;;2.40;1.00;;;;;;;-0.33;59.68;98806.12;106029;1256;72642;-75
2023/03/05 08:21:25;;;;;;;4.70;1.10;;;;;;;-0.22;59.80;98809.77;106094;1256;68789;-75
2023/03/05 08:23:52;;;;;;;4.60;1.30;;;;;;;-0.09;58.87;98809.10;105904;1255;71838;-74
2023/03/05 08:26:20;;;;;;;2.20;1.10;;;;;;;-0.02;58.04;98807.27;106027;1262;60401;-75
2023/03/05 08:28:47;;;;;;;2.60;1.10;;;;;;;0.02;57.81;98812.02;106164;1256;61441;-73
2023/03/05 08:31:20;;;;;;;2.60;1.00;;;;;;;0.07;57.83;98805.55;105843;1267;73973;-75
2023/03/05 08:33:51;;;;;;;4.80;1.70;;;;;;;0.15;57.39;98814.28;106026;1254;71313;-74
2023/03/05 08:36:18;;;;;;;2.90;1.30;;;;;;;0.21;56.94;98815.25;105844;1254;72828;-74
2023/03/05 08:38:47;;;;;;;4.80;1.30;;;;;;;0.24;56.91;98815.52;105949;1259;60424;-75
2023/03/05 08:41:15;;;;;;;2.60;1.20;;;;;;;0.26;56.77;98816.86;105580;1252;60527;-75
2023/03/05 08:43:42;;;;;;;5.00;1.40;;;;;;;0.30;56.46;98814.09;105999;1254;72890;-75
2023/03/05 08:46:10;;;;;;;2.80;1.20;;;;;;;0.48;56.85;98811.08;105853;1258;70599;-74
2023/03/05 08:48:38;;;;;;;4.80;1.60;;;;;;;0.70;56.13;98809.27;105917;1254;74133;-74
2023/03/05 08:51:09;;;;;;;3.70;1.40;;;;;;;0.87;55.35;98816.07;106116;1251;60379;-73
2023/03/05 08:53:36;;;;;;;4.30;1.60;;;;;;;1.03;54.61;98823.29;106292;1253;61152;-73
2023/03/05 08:56:17;;;;;;;2.80;1.50;;;;;;;1.10;54.25;98824.70;106024;1254;73159;-72
2023/03/05 08:58:47;;;;;;;6.10;1.90;;;;;;;1.17;53.65;98827.44;107409;1257;70674;-72
2023/03/05 09:01:15;;;;;;;3.70;1.80;;;;;;;1.30;53.82;98827.08;107985;1253;72704;-73
2023/03/05 09:03:45;;;;;;;3.60;1.40;;;;;;;1.49;53.33;98830.31;105637;1254;60501;-73
2023/03/05 09:06:12;;;;;;;2.30;1.10;;;;;;;1.64;52.83;98831.13;105627;1254;61613;-73
2023/03/05 09:08:41;;;;;;;8.60;1.80;;;;;;;1.75;52.15;98828.95;105648;1257;74800;-70
2023/03/05 09:11:09;;;;;;;2.80;1.20;;;;;;;1.85;52.29;98832.81;105556;1254;70583;-72
2023/03/05 09:13:36;;;;;;;5.00;1.70;;;;;;;2.01;52.79;98828.36;106068;1257;73658;-73
2023/03/05 09:16:07;;;;;;;2.30;1.40;;;;;;;2.28;52.26;98826.90;105657;1255;60512;-76
2023/03/05 09:18:35;;;;;;;4.40;1.70;;;;;;;2.58;51.47;98824.69;105888;1257;60500;-74
2023/03/05 09:21:06;;;;;;;3.00;1.10;;;;;;;2.93;50.70;98825.02;105900;1254;73312;-75
2023/03/05 09:23:33;;;;;;;2.70;1.20;;;;;;;3.27;49.09;98834.39;105913;1256;70553;-75
2023/03/05 09:26:01;;;;;;;3.10;1.10;;;;;;;3.54;48.74;98827.58;105802;1257;73865;-72
2023/03/05 09:28:29;;;;;;;3.10;1.20;;;;;;;3.83;48.38;98825.52;105842;1255;60537;-74
2023/03/05 09:30:56;;;;;;;5.30;1.90;;;;;;;4.18;47.79;98824.52;105987;1257;61626;-74
2023/03/05 09:33:23;;;;;;;5.10;1.60;;;;;;;4.54;47.61;98825.02;105551;1256;74122;-75
2023/03/05 09:35:50;;;;;;;5.70;2.00;;;;;;;4.97;46.95;98813.89;105824;1255;71144;-75
2023/03/05 09:38:18;;;;;;;3.50;1.90;;;;;;;5.53;46.48;98816.73;106013;1257;73738;-77
2023/03/05 09:41:06;;;;;;;3.70;2.10;;;;;;;6.20;45.13;98819.36;105809;1257;60398;-78
2023/03/05 09:44:00;;;;;;;4.30;2.00;;;;;;;6.80;43.02;98818.92;107948;1256;60307;-77
2023/03/05 09:46:42;;;;;;;3.30;1.90;;;;;;;7.10;42.56;98818.00;107036;1257;72950;-79
2023/03/05 09:49:32;;;;;;;2.80;1.70;;;;;;;7.28;42.03;98815.64;106521;1258;70165;-79
2023/03/05 09:52:14;;;;;;;2.10;1.50;;;;;;;7.29;41.18;98810.24;107073;1254;73978;-78
2023/03/05 09:54:42;;;;;;;3.80;1.60;;;;;;;7.29;41.25;98812.20;109276;1253;60304;-80
2023/03/05 09:57:21;;;;;;;2.30;1.50;;;;;;;7.53;41.16;98806.40;108531;1254;60416;-78
2023/03/05 10:00:07;;;;;;;4.70;1.40;;;;;;;7.92;40.58;98808.37;106720;1260;73190;-80
2023/03/05 10:02:48;;;;;;;3.10;1.40;;;;;;;8.29;40.08;98804.87;106940;1254;70217;-80
2023/03/05 10:05:28;;;;;;;4.10;1.70;;;;;;;8.61;38.89;98801.41;106073;1254;71949;-79
2023/03/05 10:08:00;;;;;;;;;;;;;;;8.90;39.09;98802.98;106141;1254;60450;-82
2023/03/05 10:10:38;;;;;;;2.40;1.20;;;;;;;9.00;38.31;98803.34;106214;1252;60630;-80
2023/03/05 10:13:17;;;;;;;1.90;1.10;;;;;;;8.76;38.02;98806.71;106053;1254;74038;-82
2023/03/05 10:16:25;;;;;;;2.90;1.60;;;;;;;8.38;38.50;98805.77;106192;1253;70917;-77
2023/03/05 10:19:01;;;;;;;3.20;1.30;;;;;;;7.99;38.46;98806.96;106651;1252;72348;-78
2023/03/05 10:21:50;;;;;;;5.70;2.40;;;;;;;7.50;39.20;98808.49;106654;1254;60499;-74
2023/03/05 10:24:47;;;;;;;1.60;1.40;;;;;;;6.93;39.94;98803.66;107016;1254;60426;-74
2023/03/05 10:27:21;;;;;;;1.60;1.20;;;;;;;6.72;40.67;98801.71;106401;1254;74093;-75
2023/03/05 10:30:37;;;;;;;2.50;1.50;;;;;;;6.97;40.54;98800.23;106021;1257;68492;-74
2023/03/05 10:33:19;;;;;;;4.60;1.60;;;;;;;7.67;39.42;98809.06;105790;1256;72643;-75
2023/03/05 10:36:05;;;;;;;2.60;1.10;;;;;;;8.13;38.66;98804.09;106005;1259;60428;-74
2023/03/05 10:38:52;;;;;;;2.90;1.60;;;;;;;8.46;38.00;98802.51;106085;1254;60440;-73
2023/03/05 10:41:38;;;;;;;2.90;1.40;;;;;;;8.77;37.65;98802.89;106110;1259;72956;-74
2023/03/05 10:44:38;;;;;;;3.10;1.30;;;;;;;8.78;36.89;98788.28;106402;1254;68998;-76
2023/03/05 10:47:27;;;;;;;4.50;1.80;;;;;;;8.81;36.98;98793.59;107267;1253;73851;-74
2023/03/05 10:49:57;;;;;;;2.20;1.90;;;;;;;8.98;36.91;98786.97;109100;1254;60545;-75
2023/03/05 10:52:33;;;;;;;3.10;1.60;;;;;;;8.85;37.15;98791.14;107873;1257;60370;-75
2023/03/05 10:55:12;;;;;;;2.80;1.70;;;;;;;8.52;37.06;98793.03;106307;1257;75145;-75
2023/03/05 10:57:40;;;;;;;2.60;1.90;;;;;;;8.02;38.08;98797.04;106170;1261;70125;-72
2023/03/05 11:00:21;;;;;;;2.70;1.50;;;;;;;7.67;38.60;98794.78;105848;1257;72555;-73
2023/03/05 11:03:00;;;;;;;3.70;1.40;;;;;;;7.23;38.86;98794.88;106054;1254;60801;-71
2023/03/05 11:05:37;;;;;;;2.00;1.10;;;;;;;6.71;38.91;98795.30;105949;1254;61648;-72
2023/03/05 11:08:33;;;;;;;5.10;1.50;;;;;;;6.24;39.43;98793.33;105853;1257;74328;-73
2023/03/05 11:11:09;;;;;;;1.70;1.30;;;;;;;5.70;40.27;98794.73;106132;1257;71367;-74
2023/03/05 11:13:47;;;;;;;2.90;1.50;;;;;;;5.18;41.15;98793.20;106136;1254;73859;-76
2023/03/05 11:16:16;;;;;;;3.00;1.20;;;;;;;4.76;41.88;98790.77;106250;1253;60516;-76
2023/03/05 11:18:47;;;;;;;2.40;1.20;;;;;;;4.56;42.09;98791.36;106031;1254;61401;-74
2023/03/05 11:21:19;;;;;;;3.50;1.50;;;;;;;4.44;42.24;98797.26;105807;1256;72598;-75
2023/03/05 11:24:07;;;;;;;3.10;1.50;;;;;;;4.27;42.55;98794.59;105809;1254;71321;-72
2023/03/05 11:26:35;;;;;;;3.40;2.00;;;;;;;4.16;42.67;98797.04;105784;1254;73684;-74
2023/03/05 11:29:03;;;;;;;3.50;1.40;;;;;;;4.06;43.03;98792.05;105990;1255;60540;-74
2023/03/05 11:31:31;;;;;;;3.00;1.70;;;;;;;4.02;43.23;98792.24;105673;1259;60413;-74
2023/03/05 11:34:00;;;;;;;3.30;1.60;;;;;;;4.14;43.07;98788.61;105835;1259;74802;-74
2023/03/05 11:36:55;;;;;;;2.70;1.30;;;;;;;4.27;43.00;98789.33;105907;1254;71299;-74
2023/03/05 11:39:22;;;;;;;;;;;;;;;4.46;42.77;98786.95;105913;1256;72465;-73
2023/03/05 11:41:53;;;;;;;2.60;1.50;;;;;;;4.41;42.74;98787.98;106449;1253;60552;-75
2023/03/05 11:44:43;;;;;;;4.00;1.60;;;;;;;4.28;43.17;98786.44;108208;1253;60238;-73
2023/03/05 11:47:27;;;;;;;4.70;1.80;;;;;;;4.24;43.47;98784.17;107444;1254;73864;-75